White Pine, Michigan
Current Conditions -  °F | °C
As of 9:55 PM on Thursday 20 Nov 2014 (Local Time) from KIWD Reporting Station
Overcast Overcast  
Wind Chill: -3°   Ceiling: 2200
Heat Index: 10°   Visibility: 6mi
Dew Point:   Wind: 10mph
Humidity: 79%   Direction: 240°WSW
Pressure: 30.09"   Gusts: NA
Location:  46.75°N, 89.58°W
Report Text: KIWD 210255Z AUTO 24009KT 6SM BKN022 OVC028 M12/M15 A3009 RMK AO1 52020
Loading
Personal Weather Stations






























Interactive Weather Map New forecast layout! Learn more

10-Day Weather Forecast

Advertisements
Track Severe Weather on mobile